Time;durP1;ratioP1;P1;durP2;ratioP2;P2;SDS_P1;SDS_P2;PMS_P1;PMS_P2;Temp;Humidity;BMP_temperature;BMP_pressure;BME280_temperature;BME280_humidity;BME280_pressure;Samples;Min_cycle;Max_cycle;Signal;HPM_P1;HPM_P2
2023/11/13 05:02:01;;;;;;;12.10;7.25;;;3.40;99.90;;;;;;5242987;23;21008;-74
2023/11/13 05:04:28;;;;;;;10.07;7.15;;;3.40;99.90;;;;;;4992584;28;20222;-74
2023/11/13 05:06:56;;;;;;;13.73;10.13;;;3.40;99.90;;;;;;4991285;28;20205;-74
2023/11/13 05:09:23;;;;;;;12.35;7.80;;;3.40;99.90;;;;;;4993983;28;20216;-74
2023/11/13 05:11:50;;;;;;;14.75;10.00;;;3.40;99.90;;;;;;4985223;28;20301;-74
2023/11/13 05:14:17;;;;;;;11.93;7.63;;;3.40;99.90;;;;;;4985618;28;20204;-72
2023/11/13 05:16:44;;;;;;;10.57;6.78;;;3.40;99.90;;;;;;5008196;23;20306;-69
2023/11/13 05:19:13;;;;;;;13.63;7.90;;;3.40;99.90;;;;;;4972617;28;20224;-69
2023/11/13 05:21:39;;;;;;;9.93;7.68;;;3.40;99.90;;;;;;4963053;28;20204;-69
2023/11/13 05:24:07;;;;;;;11.15;8.40;;;3.30;99.90;;;;;;4961335;28;20589;-69
2023/11/13 05:26:35;;;;;;;8.65;7.32;;;3.30;99.90;;;;;;4961771;28;20212;-69
2023/11/13 05:29:01;;;;;;;13.68;7.10;;;3.30;99.90;;;;;;4955597;28;20224;-69
2023/11/13 05:31:28;;;;;;;13.23;9.07;;;3.30;99.90;;;;;;4962389;28;20653;-70
2023/11/13 05:33:55;;;;;;;11.48;7.45;;;3.30;99.90;;;;;;4958473;28;20252;-70
2023/11/13 05:36:23;;;;;;;11.00;9.05;;;3.30;99.90;;;;;;4954547;28;20240;-69
2023/11/13 05:38:50;;;;;;;13.27;8.15;;;3.30;99.90;;;;;;4959172;28;20391;-70
2023/11/13 05:41:16;;;;;;;23.58;8.57;;;3.30;99.90;;;;;;4962967;28;20205;-69
2023/11/13 05:43:43;;;;;;;15.80;9.35;;;3.30;99.90;;;;;;4967579;28;20215;-69
2023/11/13 05:46:10;;;;;;;10.93;8.13;;;3.30;99.90;;;;;;4963312;28;20230;-69
2023/11/13 05:48:37;;;;;;;14.30;9.40;;;3.30;99.90;;;;;;4961405;28;20295;-70
2023/11/13 05:51:04;;;;;;;10.30;7.07;;;3.30;99.90;;;;;;4957731;28;20232;-69
2023/11/13 05:53:32;;;;;;;13.50;9.65;;;3.30;99.90;;;;;;4960672;28;20300;-70
2023/11/13 05:55:59;;;;;;;14.45;8.82;;;3.30;99.90;;;;;;4960389;28;20221;-70
2023/11/13 05:58:26;;;;;;;11.07;7.50;;;3.30;99.90;;;;;;4964200;28;20215;-70
2023/11/13 06:00:53;;;;;;;11.88;6.38;;;3.40;99.90;;;;;;4959436;28;20229;-70
2023/11/13 06:03:19;;;;;;;11.20;7.13;;;3.40;99.90;;;;;;4965453;28;20570;-69
2023/11/13 06:05:46;;;;;;;10.55;6.88;;;3.40;99.90;;;;;;4961106;28;20296;-69
2023/11/13 06:08:13;;;;;;;13.25;7.03;;;3.40;99.90;;;;;;4962973;28;20207;-69
2023/11/13 06:10:42;;;;;;;7.05;6.28;;;3.40;99.90;;;;;;4954087;28;20320;-70
2023/11/13 06:13:08;;;;;;;10.48;7.00;;;3.40;99.90;;;;;;4955091;28;20224;-69
2023/11/13 06:15:37;;;;;;;12.02;7.90;;;3.40;99.90;;;;;;4953530;28;20227;-68
2023/11/13 06:18:06;;;;;;;11.05;6.60;;;3.40;99.90;;;;;;4962174;28;20313;-70
2023/11/13 06:20:33;;;;;;;6.60;5.72;;;3.40;99.90;;;;;;4969245;28;20232;-69
2023/11/13 06:23:01;;;;;;;6.95;6.18;;;3.40;99.90;;;;;;4955740;28;20307;-69
2023/11/13 06:25:27;;;;;;;8.02;6.35;;;3.40;99.90;;;;;;4961439;28;20220;-69
2023/11/13 06:27:56;;;;;;;8.80;7.10;;;3.40;99.90;;;;;;4966400;28;20683;-70
2023/11/13 06:30:23;;;;;;;13.35;6.30;;;3.40;99.90;;;;;;4964438;28;20316;-70
2023/11/13 06:32:50;;;;;;;9.52;6.75;;;3.40;99.90;;;;;;4966332;28;20679;-70
2023/11/13 06:35:18;;;;;;;8.65;6.78;;;3.40;99.90;;;;;;4963385;28;20577;-71
2023/11/13 06:37:44;;;;;;;7.72;6.35;;;3.40;99.90;;;;;;4949541;28;20221;-70
2023/11/13 06:40:16;;;;;;;15.80;7.05;;;3.40;99.90;;;;;;4954499;28;20233;-70
2023/11/13 06:42:44;;;;;;;9.27;6.47;;;3.40;99.90;;;;;;4955077;28;20208;-71
2023/11/13 06:45:12;;;;;;;10.68;6.35;;;3.30;99.90;;;;;;4961492;28;20212;-70
2023/11/13 06:47:40;;;;;;;14.93;6.70;;;3.30;99.90;;;;;;4952724;28;20205;-70
2023/11/13 06:50:08;;;;;;;17.88;9.13;;;3.30;99.90;;;;;;4951272;28;20587;-70
2023/11/13 06:52:34;;;;;;;16.15;7.97;;;3.30;99.90;;;;;;4960696;28;20216;-71
2023/11/13 06:55:01;;;;;;;11.38;8.52;;;3.30;99.90;;;;;;4956874;28;20280;-71
2023/11/13 06:57:28;;;;;;;11.07;7.70;;;3.30;99.90;;;;;;4957301;28;20233;-71
2023/11/13 06:59:55;;;;;;;20.65;11.98;;;3.30;99.90;;;;;;4956276;28;20225;-71
2023/11/13 07:02:26;;;;;;;11.32;7.63;;;3.30;99.90;;;;;;4959246;28;20209;-70
2023/11/13 07:04:53;;;;;;;17.52;10.35;;;3.30;99.90;;;;;;4962050;28;20605;-69
2023/11/13 07:07:20;;;;;;;17.52;12.20;;;3.30;99.90;;;;;;4961631;28;20209;-70
2023/11/13 07:09:47;;;;;;;12.60;7.93;;;3.30;99.90;;;;;;4961049;28;20225;-70
2023/11/13 07:12:14;;;;;;;17.23;9.20;;;3.40;99.90;;;;;;4961259;28;20692;-69
2023/11/13 07:14:41;;;;;;;18.05;11.70;;;3.40;99.90;;;;;;4957623;28;20205;-70
2023/11/13 07:17:08;;;;;;;10.63;6.55;;;3.40;99.90;;;;;;4959781;28;20236;-69
2023/11/13 07:19:37;;;;;;;10.10;7.85;;;3.40;99.90;;;;;;4958497;28;20723;-70
2023/11/13 07:22:06;;;;;;;10.40;8.98;;;3.40;99.90;;;;;;4958175;28;20789;-69
2023/11/13 07:24:36;;;;;;;14.68;8.20;;;3.40;99.90;;;;;;4960529;28;20213;-69
2023/11/13 07:27:03;;;;;;;10.88;8.02;;;3.40;99.90;;;;;;4967034;28;20224;-69
2023/11/13 07:29:31;;;;;;;10.02;7.05;;;3.40;99.90;;;;;;4961421;28;20239;-70
2023/11/13 07:31:57;;;;;;;11.02;8.35;;;3.40;99.90;;;;;;4957882;28;20210;-70
2023/11/13 07:34:24;;;;;;;9.80;7.05;;;3.40;99.90;;;;;;4957676;28;20233;-71
2023/11/13 07:36:52;;;;;;;8.88;6.78;;;3.30;99.90;;;;;;4957539;28;20233;-69
2023/11/13 07:39:19;;;;;;;14.75;11.73;;;3.30;99.90;;;;;;4958471;28;20224;-68
2023/11/13 07:41:47;;;;;;;13.63;8.68;;;3.40;99.90;;;;;;4959107;28;20685;-70
2023/11/13 07:44:14;;;;;;;9.25;7.07;;;3.40;99.90;;;;;;4955944;28;20200;-70
2023/11/13 07:46:41;;;;;;;8.32;7.63;;;3.40;99.90;;;;;;4960506;28;20271;-70
2023/11/13 07:49:09;;;;;;;16.38;10.30;;;3.40;99.90;;;;;;4955092;28;20239;-70
2023/11/13 07:51:36;;;;;;;9.15;8.20;;;3.40;99.90;;;;;;4956082;28;20213;-70
2023/11/13 07:54:05;;;;;;;7.25;5.30;;;3.50;99.90;;;;;;4958348;28;20209;-70
2023/11/13 07:56:32;;;;;;;18.70;11.95;;;3.50;99.90;;;;;;4955673;28;20703;-70
2023/11/13 07:59:05;;;;;;;9.95;7.38;;;3.50;99.90;;;;;;4956667;28;20611;-69
2023/11/13 08:01:31;;;;;;;8.70;5.50;;;3.50;99.90;;;;;;4958834;28;20677;-69
2023/11/13 08:03:59;;;;;;;8.85;6.07;;;3.60;99.90;;;;;;4960237;28;20204;-70
2023/11/13 08:06:25;;;;;;;6.78;6.05;;;3.60;99.90;;;;;;4964155;28;20216;-70
2023/11/13 08:08:52;;;;;;;14.48;8.85;;;3.60;99.90;;;;;;4958780;28;20213;-69
2023/11/13 08:11:20;;;;;;;9.55;6.82;;;3.60;99.90;;;;;;4960355;28;20236;-69
2023/11/13 08:13:47;;;;;;;7.50;6.25;;;3.60;99.90;;;;;;4969038;28;20570;-70
2023/11/13 08:16:14;;;;;;;8.57;7.05;;;3.60;99.90;;;;;;4965637;28;20216;-70
2023/11/13 08:18:40;;;;;;;8.23;6.25;;;3.70;99.90;;;;;;4967219;28;20205;-70
2023/11/13 08:21:10;;;;;;;8.48;7.10;;;3.70;99.90;;;;;;4961007;28;20225;-69
2023/11/13 08:23:37;;;;;;;11.98;6.05;;;3.80;99.90;;;;;;4959952;28;20205;-69
2023/11/13 08:26:05;;;;;;;11.35;8.10;;;3.80;99.90;;;;;;4966439;28;20216;-69
2023/11/13 08:28:33;;;;;;;12.52;8.23;;;3.90;99.90;;;;;;4966648;28;20215;-70
2023/11/13 08:31:00;;;;;;;10.73;8.07;;;4.00;99.90;;;;;;4959276;28;20274;-76
2023/11/13 08:33:27;;;;;;;9.07;7.82;;;4.10;99.90;;;;;;4956143;28;20303;-70
2023/11/13 08:35:54;;;;;;;7.90;5.90;;;4.10;99.90;;;;;;4963462;28;20216;-70
2023/11/13 08:38:23;;;;;;;8.00;6.03;;;4.20;99.90;;;;;;4969342;28;20255;-70
2023/11/13 08:40:52;;;;;;;12.30;6.70;;;4.30;99.90;;;;;;4955121;28;20805;-71
2023/11/13 08:43:19;;;;;;;13.60;9.73;;;4.30;99.90;;;;;;4964525;28;20256;-70
2023/11/13 08:45:47;;;;;;;6.90;6.20;;;4.40;99.90;;;;;;4964988;28;20311;-70
2023/11/13 08:48:14;;;;;;;11.50;7.78;;;4.50;99.90;;;;;;4954326;28;20570;-70
2023/11/13 08:50:44;;;;;;;7.47;6.45;;;4.50;99.90;;;;;;4963813;28;20713;-70
2023/11/13 08:53:11;;;;;;;12.45;7.80;;;4.60;99.90;;;;;;4961947;28;20216;-70
2023/11/13 08:55:39;;;;;;;12.05;6.47;;;4.60;99.90;;;;;;4966319;28;20205;-70
2023/11/13 08:58:07;;;;;;;12.02;8.75;;;4.60;99.90;;;;;;4959565;28;20240;-70
2023/11/13 09:00:41;;;;;;;11.00;7.45;;;4.60;99.90;;;;;;4959661;28;20239;-70
2023/11/13 09:03:09;;;;;;;19.00;8.55;;;4.60;99.90;;;;;;4968809;28;20212;-70
2023/11/13 09:05:36;;;;;;;12.07;7.93;;;4.70;99.90;;;;;;4962341;28;20209;-70
2023/11/13 09:08:03;;;;;;;9.73;7.55;;;4.70;99.90;;;;;;4966875;28;20213;-70
2023/11/13 09:10:31;;;;;;;13.48;7.38;;;4.70;99.90;;;;;;4966302;28;20256;-70
2023/11/13 09:12:59;;;;;;;9.80;6.82;;;4.70;99.90;;;;;;4962075;28;20221;-70
2023/11/13 09:15:27;;;;;;;4.88;4.57;;;4.80;99.90;;;;;;4960058;28;20630;-71
2023/11/13 09:17:54;;;;;;;9.00;5.82;;;4.80;99.90;;;;;;4962334;28;20278;-70
2023/11/13 09:20:24;;;;;;;10.40;6.00;;;4.90;99.90;;;;;;4961261;28;20577;-69
2023/11/13 09:22:53;;;;;;;7.60;5.82;;;4.90;99.90;;;;;;4962411;28;20274;-69
2023/11/13 09:25:21;;;;;;;5.18;4.68;;;4.90;99.90;;;;;;4957784;28;20217;-71
2023/11/13 09:27:50;;;;;;;7.13;5.30;;;4.90;99.90;;;;;;4956877;28;20262;-73
2023/11/13 09:30:18;;;;;;;7.25;5.80;;;5.00;99.90;;;;;;4962516;28;20755;-69
2023/11/13 09:32:45;;;;;;;7.28;6.32;;;5.00;99.90;;;;;;4956550;28;20210;-73
2023/11/13 09:35:18;;;;;;;7.45;6.35;;;5.00;99.90;;;;;;4962748;28;20209;-69
2023/11/13 09:37:47;;;;;;;14.48;6.90;;;5.10;99.90;;;;;;4955460;28;20320;-73
2023/11/13 09:40:16;;;;;;;8.13;6.10;;;5.10;99.90;;;;;;4959700;28;20232;-71
2023/11/13 09:42:47;;;;;;;6.38;5.70;;;5.10;99.90;;;;;;4961125;28;20300;-71
2023/11/13 09:45:15;;;;;;;7.40;6.07;;;5.10;99.90;;;;;;4964274;28;20392;-71
2023/11/13 09:47:45;;;;;;;3.83;3.42;;;5.20;99.90;;;;;;4964407;28;20542;-71
2023/11/13 09:50:16;;;;;;;6.93;6.05;;;5.20;99.90;;;;;;4965117;28;20225;-71
2023/11/13 09:52:50;;;;;;;15.02;7.43;;;5.20;99.90;;;;;;4961074;28;20209;-71
2023/11/13 09:55:20;;;;;;;9.55;6.18;;;5.30;99.90;;;;;;4961694;28;20639;-71
2023/11/13 09:57:51;;;;;;;12.10;5.93;;;5.40;99.90;;;;;;4963343;28;20224;-72
2023/11/13 10:00:19;;;;;;;5.15;4.45;;;5.50;99.90;;;;;;4958002;28;20311;-71
2023/11/13 10:02:48;;;;;;;6.47;3.45;;;5.40;99.90;;;;;;4963589;28;20583;-71
2023/11/13 10:05:16;;;;;;;10.45;5.10;;;5.50;99.90;;;;;;4964125;28;20732;-71
2023/11/13 10:07:47;;;;;;;5.15;4.32;;;5.60;99.90;;;;;;4955478;28;20224;-70
2023/11/13 10:10:21;;;;;;;5.90;4.82;;;5.60;99.90;;;;;;4962388;28;20575;-71
2023/11/13 10:12:48;;;;;;;6.55;5.07;;;5.70;99.90;;;;;;4963373;28;20279;-71
2023/11/13 10:15:17;;;;;;;6.18;5.57;;;5.80;99.90;;;;;;4955149;28;20230;-71
2023/11/13 10:17:46;;;;;;;12.77;6.30;;;5.90;99.90;;;;;;4971022;28;20235;-71
2023/11/13 10:20:17;;;;;;;6.65;5.80;;;6.00;99.90;;;;;;4961164;28;20229;-71
2023/11/13 10:22:44;;;;;;;5.90;5.40;;;6.20;99.90;;;;;;4956732;28;20213;-70
2023/11/13 10:25:11;;;;;;;9.35;6.65;;;6.30;99.90;;;;;;4963612;28;20296;-71
2023/11/13 10:27:44;;;;;;;6.43;4.50;;;6.30;99.90;;;;;;4956953;28;20233;-71
2023/11/13 10:30:12;;;;;;;5.68;4.45;;;6.30;99.90;;;;;;4955620;28;20658;-71
2023/11/13 10:32:39;;;;;;;8.80;5.53;;;6.40;99.90;;;;;;4961286;28;20213;-71
2023/11/13 10:35:09;;;;;;;7.25;5.97;;;6.50;99.90;;;;;;4962233;28;20695;-72
2023/11/13 10:37:38;;;;;;;5.57;5.13;;;6.60;99.90;;;;;;4953321;28;20232;-72
2023/11/13 10:40:11;;;;;;;6.13;5.30;;;6.70;99.90;;;;;;4965777;28;20229;-73
2023/11/13 10:42:41;;;;;;;8.10;6.00;;;6.70;99.90;;;;;;4961405;28;20217;-72
2023/11/13 10:45:12;;;;;;;5.93;5.45;;;6.80;99.90;;;;;;4964813;28;20217;-72
2023/11/13 10:47:49;;;;;;;9.63;6.95;;;6.90;99.90;;;;;;4953844;28;20193;-71
2023/11/13 10:50:19;;;;;;;2.17;2.08;;;6.90;99.90;;;;;;4953321;28;20223;-71
2023/11/13 10:52:47;;;;;;;5.07;4.68;;;7.00;99.90;;;;;;4952362;28;20231;-71
2023/11/13 10:55:16;;;;;;;4.32;3.97;;;7.10;99.90;;;;;;4967375;28;20211;-71
2023/11/13 10:57:45;;;;;;;5.43;4.82;;;7.20;99.90;;;;;;4955921;28;20257;-71
2023/11/13 11:00:13;;;;;;;6.35;4.45;;;7.30;99.90;;;;;;4965830;28;20655;-71
2023/11/13 11:02:45;;;;;;;10.25;5.35;;;7.50;99.90;;;;;;4952885;28;20212;-72
2023/11/13 11:05:20;;;;;;;5.15;4.68;;;7.50;99.90;;;;;;4959725;28;20212;-70
2023/11/13 11:07:52;;;;;;;4.93;4.47;;;7.70;99.90;;;;;;4959720;28;20271;-75
2023/11/13 11:10:24;;;;;;;4.97;4.13;;;7.70;99.90;;;;;;4963236;28;20236;-73
2023/11/13 11:12:59;;;;;;;8.63;6.75;;;7.80;99.90;;;;;;4962562;28;20688;-79
2023/11/13 11:16:13;;;;;;;5.28;4.15;;;8.00;99.90;;;;;;4958341;28;20237;-76
2023/11/13 11:18:46;;;;;;;6.40;4.03;;;8.00;99.90;;;;;;4964503;28;20223;-75
2023/11/13 11:21:33;;;;;;;3.47;2.80;;;8.20;99.90;;;;;;4956051;28;20236;-76
2023/11/13 11:24:11;;;;;;;6.55;3.45;;;8.20;99.90;;;;;;4955563;28;20206;-76
2023/11/13 11:26:58;;;;;;;3.65;3.08;;;8.20;99.90;;;;;;4952048;28;20237;-75
2023/11/13 11:29:34;;;;;;;2.25;2.15;;;8.20;99.90;;;;;;4948492;28;20225;-75
2023/11/13 11:32:10;;;;;;;2.40;1.65;;;8.20;99.90;;;;;;4952980;28;20593;-76
2023/11/13 11:34:41;;;;;;;3.08;2.72;;;8.20;99.90;;;;;;4948203;28;20743;-76
2023/11/13 11:37:12;;;;;;;9.38;2.40;;;8.20;99.90;;;;;;4951734;28;20294;-75
2023/11/13 11:40:06;;;;;;;1.75;1.75;;;8.30;99.90;;;;;;4952527;28;20238;-75
2023/11/13 11:42:33;;;;;;;2.25;2.15;;;8.30;99.90;;;;;;4950463;28;20213;-75
2023/11/13 11:45:07;;;;;;;1.85;1.75;;;8.40;99.90;;;;;;4952448;28;20209;-74
2023/11/13 11:47:36;;;;;;;2.03;1.92;;;8.40;99.90;;;;;;4955817;28;20568;-76
2023/11/13 11:50:13;;;;;;;2.13;2.03;;;8.40;99.90;;;;;;4947422;28;20253;-76
2023/11/13 11:52:50;;;;;;;1.13;1.10;;;8.40;99.90;;;;;;4956364;28;20232;-75
2023/11/13 11:55:19;;;;;;;2.22;2.13;;;8.40;99.90;;;;;;4962528;28;20292;-76
2023/11/13 11:57:47;;;;;;;1.30;1.27;;;8.40;99.90;;;;;;4958164;28;20311;-74
2023/11/13 12:00:19;;;;;;;3.08;2.88;;;8.40;99.90;;;;;;4966632;28;20228;-75
2023/11/13 12:02:46;;;;;;;2.63;0.85;;;8.40;99.90;;;;;;4963938;28;20214;-77
2023/11/13 12:05:13;;;;;;;3.28;1.67;;;8.50;99.90;;;;;;4966677;28;20312;-75
2023/11/13 12:07:40;;;;;;;1.80;1.75;;;8.40;99.90;;;;;;4959075;28;20209;-73
2023/11/13 12:10:09;;;;;;;1.55;1.55;;;8.50;99.90;;;;;;4967934;28;20693;-75
2023/11/13 12:12:37;;;;;;;2.00;1.92;;;8.60;99.90;;;;;;4966668;28;20209;-73
2023/11/13 12:15:07;;;;;;;2.65;2.65;;;8.60;99.90;;;;;;4958510;28;20236;-74
2023/11/13 12:17:37;;;;;;;1.20;1.20;;;8.70;99.90;;;;;;4963770;28;20315;-74
2023/11/13 12:20:06;;;;;;;1.75;1.70;;;8.70;99.90;;;;;;4958174;28;20315;-75
2023/11/13 12:22:34;;;;;;;1.83;1.80;;;8.80;99.90;;;;;;4955267;28;20745;-74
2023/11/13 12:25:03;;;;;;;1.05;1.05;;;8.80;99.90;;;;;;4957240;28;20205;-74
2023/11/13 12:27:30;;;;;;;1.95;1.75;;;8.80;99.90;;;;;;4957308;28;20246;-74
2023/11/13 12:30:01;;;;;;;1.33;1.33;;;8.80;99.90;;;;;;4951065;28;20235;-75
2023/11/13 12:32:29;;;;;;;1.63;1.52;;;8.80;99.90;;;;;;4957984;28;20211;-74
2023/11/13 12:34:58;;;;;;;2.60;2.40;;;8.80;99.90;;;;;;4955960;28;20288;-74
2023/11/13 12:37:27;;;;;;;1.45;1.45;;;8.70;99.90;;;;;;4963291;28;20658;-75
2023/11/13 12:39:54;;;;;;;1.35;1.35;;;8.70;99.90;;;;;;4951697;28;20235;-75
2023/11/13 12:42:21;;;;;;;1.80;1.20;;;8.70;99.90;;;;;;4963440;28;20206;-75
2023/11/13 12:44:48;;;;;;;2.70;1.98;;;8.60;99.90;;;;;;4958162;28;20664;-75
2023/11/13 12:47:16;;;;;;;2.15;1.92;;;8.60;99.90;;;;;;4957969;28;20212;-75
2023/11/13 12:49:46;;;;;;;2.05;1.95;;;8.60;99.90;;;;;;4962063;28;20711;-75
2023/11/13 12:52:17;;;;;;;1.92;1.83;;;8.60;99.90;;;;;;4953535;28;20216;-75
2023/11/13 12:54:49;;;;;;;1.88;1.77;;;8.50;99.90;;;;;;4962942;28;20210;-74
2023/11/13 12:57:16;;;;;;;1.00;1.00;;;8.50;99.90;;;;;;4958569;28;20207;-73
2023/11/13 12:59:44;;;;;;;3.15;1.60;;;8.40;99.90;;;;;;4956200;28;20259;-72
2023/11/13 13:02:11;;;;;;;15.90;2.00;;;8.40;99.90;;;;;;4959355;28;20206;-77
2023/11/13 13:04:38;;;;;;;1.90;1.90;;;8.30;99.90;;;;;;4961394;28;20209;-74
2023/11/13 13:07:09;;;;;;;1.35;1.35;;;8.20;99.90;;;;;;4956416;28;20209;-73
2023/11/13 13:09:38;;;;;;;2.58;2.38;;;8.20;99.90;;;;;;4961298;28;20248;-74
2023/11/13 13:12:06;;;;;;;3.72;3.22;;;8.20;99.90;;;;;;4957264;28;20240;-73
2023/11/13 13:14:33;;;;;;;2.47;2.47;;;8.20;99.90;;;;;;4960606;28;20496;-75
2023/11/13 13:17:06;;;;;;;3.22;2.55;;;8.20;99.90;;;;;;4958584;28;20214;-74
2023/11/13 13:19:37;;;;;;;3.85;3.40;;;8.20;99.90;;;;;;4954946;28;20230;-73
2023/11/13 13:22:05;;;;;;;4.05;2.95;;;8.10;99.90;;;;;;4956278;28;20598;-75
2023/11/13 13:24:32;;;;;;;3.63;2.95;;;8.10;99.90;;;;;;4961785;28;20691;-75
2023/11/13 13:27:00;;;;;;;2.92;2.00;;;8.10;99.90;;;;;;4961727;28;20662;-75
2023/11/13 13:29:27;;;;;;;6.32;4.25;;;8.10;99.90;;;;;;4957231;28;20220;-74
2023/11/13 13:31:54;;;;;;;3.72;3.08;;;8.10;99.90;;;;;;4953525;28;20215;-75
2023/11/13 13:34:21;;;;;;;3.38;2.75;;;8.10;99.90;;;;;;4954663;28;20229;-75
2023/11/13 13:36:48;;;;;;;3.47;3.25;;;8.00;99.90;;;;;;4958156;28;20201;-75
2023/11/13 13:39:15;;;;;;;4.38;4.18;;;8.00;99.90;;;;;;4965616;28;20282;-76
2023/11/13 13:45:07;;;;;;;6.00;3.30;;;8.00;99.90;;;;;;4947316;28;20297;-76
2023/11/13 13:47:34;;;;;;;3.00;2.80;;;8.00;99.90;;;;;;4951208;28;20213;-75
2023/11/13 13:50:01;;;;;;;2.00;1.98;;;8.00;99.90;;;;;;4956467;28;20227;-75
2023/11/13 13:52:30;;;;;;;7.15;2.03;;;8.00;99.90;;;;;;4949858;28;20208;-76
2023/11/13 13:54:58;;;;;;;3.95;3.40;;;8.00;99.90;;;;;;4957239;28;20634;-76
2023/11/13 13:57:25;;;;;;;4.18;2.75;;;8.00;99.90;;;;;;4958096;28;20860;-75
2023/11/13 13:59:55;;;;;;;4.95;3.35;;;8.00;99.90;;;;;;4957237;28;20251;-76
2023/11/13 14:02:25;;;;;;;3.55;3.25;;;8.00;99.90;;;;;;4956182;28;20637;-75
2023/11/13 14:04:51;;;;;;;4.85;4.13;;;8.00;99.90;;;;;;4956846;28;20233;-75
2023/11/13 14:07:18;;;;;;;2.30;2.20;;;8.00;99.90;;;;;;4962210;28;20209;-75
2023/11/13 14:09:45;;;;;;;3.72;2.88;;;8.10;99.90;;;;;;4962253;28;20237;-76
2023/11/13 14:12:12;;;;;;;4.75;4.45;;;8.10;99.90;;;;;;4956947;28;20270;-76
2023/11/13 14:14:39;;;;;;;3.05;2.95;;;8.20;99.90;;;;;;4959105;28;20205;-76
2023/11/13 14:17:07;;;;;;;3.05;2.38;;;8.20;99.90;;;;;;4958916;28;20311;-75
2023/11/13 14:19:35;;;;;;;3.53;3.20;;;8.10;99.90;;;;;;4958168;28;20225;-75
2023/11/13 14:22:03;;;;;;;2.88;2.67;;;8.00;99.90;;;;;;4959185;28;20293;-73
2023/11/13 14:24:31;;;;;;;2.80;2.60;;;8.00;99.90;;;;;;4954966;28;20272;-76
2023/11/13 14:26:59;;;;;;;2.38;2.17;;;8.20;99.90;;;;;;4968085;28;20235;-75
2023/11/13 14:29:27;;;;;;;2.63;2.53;;;7.90;99.90;;;;;;4955201;28;20617;-77
2023/11/13 14:31:55;;;;;;;3.90;3.60;;;7.90;99.90;;;;;;4959149;28;20216;-77
2023/11/13 14:34:22;;;;;;;1.80;1.70;;;7.80;99.90;;;;;;4953610;28;20676;-76
2023/11/13 14:36:52;;;;;;;3.22;2.92;;;7.90;99.90;;;;;;4959698;28;20207;-78
2023/11/13 14:39:20;;;;;;;3.78;3.40;;;7.80;99.90;;;;;;4956250;28;20243;-77
2023/11/13 14:41:47;;;;;;;7.05;3.92;;;7.80;99.90;;;;;;4957943;28;20305;-77
2023/11/13 14:44:14;;;;;;;2.30;2.17;;;7.80;99.90;;;;;;4957564;28;20205;-76
2023/11/13 14:46:41;;;;;;;2.33;2.13;;;7.80;99.90;;;;;;4962551;28;20219;-75
2023/11/13 14:49:08;;;;;;;4.60;2.75;;;7.80;99.90;;;;;;4955170;28;20206;-75
2023/11/13 14:51:35;;;;;;;4.70;3.15;;;7.80;99.90;;;;;;4955594;28;20223;-76
2023/11/13 14:54:03;;;;;;;4.38;3.50;;;7.80;99.90;;;;;;4958630;28;20259;-75
2023/11/13 14:56:29;;;;;;;5.78;2.60;;;7.80;99.90;;;;;;4953697;28;20688;-73
2023/11/13 14:58:56;;;;;;;5.97;2.85;;;7.80;99.90;;;;;;4957659;28;20324;-75
2023/11/13 15:01:24;;;;;;;5.07;4.65;;;7.80;99.90;;;;;;4953399;28;20210;-75
2023/11/13 15:03:55;;;;;;;6.43;4.38;;;7.80;99.90;;;;;;4955775;28;20696;-75
2023/11/13 15:06:22;;;;;;;3.83;3.53;;;7.80;99.90;;;;;;4961794;28;20213;-74
2023/11/13 15:08:49;;;;;;;4.28;2.42;;;7.70;99.90;;;;;;4958713;28;20201;-75
2023/11/13 15:11:17;;;;;;;4.18;2.65;;;7.70;99.90;;;;;;4955417;28;20244;-75
2023/11/13 15:13:45;;;;;;;6.35;4.68;;;7.70;99.90;;;;;;4953075;28;20204;-74
2023/11/13 15:16:14;;;;;;;3.10;2.90;;;7.70;99.90;;;;;;4960131;28;20304;-79
2023/11/13 15:18:40;;;;;;;4.43;3.40;;;7.70;99.90;;;;;;4960226;28;20287;-80
2023/11/13 15:21:09;;;;;;;4.90;4.28;;;7.60;99.90;;;;;;4966160;28;20233;-74
2023/11/13 15:23:36;;;;;;;5.57;4.38;;;7.70;99.90;;;;;;4964874;28;20677;-75
2023/11/13 15:26:03;;;;;;;5.88;5.00;;;7.70;99.90;;;;;;4962832;28;20851;-75
2023/11/13 15:28:33;;;;;;;10.02;5.82;;;7.70;99.90;;;;;;4964306;28;20213;-74
2023/11/13 15:31:00;;;;;;;9.25;6.72;;;7.60;99.90;;;;;;4969986;28;20373;-74
2023/11/13 15:33:27;;;;;;;13.00;8.60;;;7.60;99.90;;;;;;4955296;28;20214;-75
2023/11/13 15:35:54;;;;;;;5.30;4.80;;;7.60;99.90;;;;;;4960524;28;20689;-74
2023/11/13 15:38:21;;;;;;;9.15;6.10;;;7.50;99.90;;;;;;4962297;28;20749;-74
2023/11/13 15:40:48;;;;;;;7.25;5.90;;;7.50;99.90;;;;;;4959621;28;20225;-74
2023/11/13 15:43:15;;;;;;;5.45;4.82;;;7.50;99.90;;;;;;4961662;28;20670;-74
2023/11/13 15:45:43;;;;;;;7.63;5.55;;;7.40;99.90;;;;;;4958187;28;20273;-77
2023/11/13 15:48:11;;;;;;;6.03;4.47;;;7.40;99.90;;;;;;4969279;28;20204;-78
2023/11/13 15:50:41;;;;;;;5.70;5.10;;;7.40;99.90;;;;;;4962256;28;20252;-76
2023/11/13 15:53:08;;;;;;;6.57;5.88;;;7.40;99.90;;;;;;4954271;28;20264;-76
2023/11/13 15:55:36;;;;;;;5.55;5.05;;;7.40;99.90;;;;;;4964921;28;20204;-77
2023/11/13 15:58:06;;;;;;;6.15;4.45;;;7.40;99.90;;;;;;4961065;28;20235;-77
2023/11/13 16:00:35;;;;;;;9.65;7.10;;;7.30;99.90;;;;;;4955522;28;22759;-77
2023/11/13 16:03:04;;;;;;;6.28;5.55;;;7.30;99.90;;;;;;4960602;28;20209;-78
2023/11/13 16:05:31;;;;;;;10.48;6.78;;;7.30;99.90;;;;;;4962488;28;21645;-77
2023/11/13 16:07:57;;;;;;;3.97;3.35;;;7.30;99.90;;;;;;4961740;28;20417;-77
2023/11/13 16:10:24;;;;;;;1.85;1.65;;;7.30;99.90;;;;;;4965174;28;20231;-76
2023/11/13 16:12:51;;;;;;;7.10;5.93;;;7.30;99.90;;;;;;4959838;28;20226;-76
2023/11/13 16:15:22;;;;;;;9.00;6.63;;;7.30;99.90;;;;;;4960500;28;20216;-77
2023/11/13 16:17:49;;;;;;;7.25;4.53;;;7.20;99.90;;;;;;4957878;28;20201;-77
2023/11/13 16:20:19;;;;;;;10.45;5.65;;;7.20;99.90;;;;;;4961438;28;20264;-78
2023/11/13 16:22:46;;;;;;;6.38;5.10;;;7.30;99.90;;;;;;4960269;28;20225;-78
2023/11/13 16:25:14;;;;;;;10.32;7.63;;;7.20;99.90;;;;;;4957020;28;20536;-78
2023/11/13 16:27:41;;;;;;;7.82;5.47;;;7.30;99.90;;;;;;4962301;28;20297;-77
2023/11/13 16:30:09;;;;;;;3.78;3.47;;;7.30;99.90;;;;;;4961758;28;20235;-77
2023/11/13 16:32:38;;;;;;;7.72;6.95;;;7.30;99.90;;;;;;4961626;28;20217;-76
2023/11/13 16:35:06;;;;;;;7.95;4.95;;;7.30;99.90;;;;;;4962776;28;20251;-77
2023/11/13 16:37:34;;;;;;;6.65;6.03;;;7.30;99.90;;;;;;4954748;28;20205;-78
2023/11/13 16:40:02;;;;;;;6.95;6.25;;;7.30;99.90;;;;;;4960838;28;20566;-77
2023/11/13 16:42:29;;;;;;;5.85;4.40;;;7.30;99.90;;;;;;4958547;28;20213;-76
2023/11/13 16:44:56;;;;;;;3.15;2.95;;;7.30;99.90;;;;;;4963022;28;20201;-76
2023/11/13 16:47:24;;;;;;;5.22;2.13;;;7.30;99.90;;;;;;4955481;28;20288;-77
2023/11/13 16:49:51;;;;;;;6.53;4.18;;;7.20;99.90;;;;;;4960023;28;20701;-77
2023/11/13 16:52:18;;;;;;;8.60;5.72;;;7.20;99.90;;;;;;4961031;28;20216;-76
2023/11/13 16:54:47;;;;;;;5.70;5.20;;;7.30;99.90;;;;;;4955627;28;20220;-77
2023/11/13 16:57:14;;;;;;;4.38;4.05;;;7.30;99.90;;;;;;4965489;28;20264;-76
2023/11/13 16:59:41;;;;;;;6.60;5.57;;;7.30;99.90;;;;;;4961975;28;20606;-76
2023/11/13 17:02:08;;;;;;;8.25;6.57;;;7.40;99.90;;;;;;4958963;28;20215;-76
2023/11/13 17:04:34;;;;;;;5.95;5.45;;;7.30;99.90;;;;;;4954953;28;20223;-76
2023/11/13 17:07:01;;;;;;;5.50;4.82;;;7.40;99.90;;;;;;4958116;28;20213;-76
2023/11/13 17:09:28;;;;;;;6.40;5.40;;;7.40;99.90;;;;;;4963862;28;20224;-76
2023/11/13 17:11:56;;;;;;;5.10;4.60;;;7.40;99.90;;;;;;4956807;28;20312;-76
2023/11/13 17:14:23;;;;;;;7.88;5.63;;;7.40;99.90;;;;;;4965651;28;20211;-76
2023/11/13 17:16:51;;;;;;;7.10;6.40;;;7.40;99.90;;;;;;4955764;28;20216;-76
2023/11/13 17:19:18;;;;;;;6.63;5.97;;;7.50;99.90;;;;;;4963156;28;20227;-77
2023/11/13 17:21:45;;;;;;;9.45;5.38;;;7.50;99.90;;;;;;4954414;28;20213;-75
2023/11/13 17:24:12;;;;;;;6.55;5.78;;;7.50;99.90;;;;;;4960563;28;20204;-74
2023/11/13 17:26:40;;;;;;;9.88;7.07;;;7.50;99.90;;;;;;4957075;28;20233;-76
2023/11/13 17:29:14;;;;;;;8.43;6.03;;;7.50;99.90;;;;;;4951820;28;20225;-74
2023/11/13 17:31:41;;;;;;;8.50;6.57;;;7.50;99.90;;;;;;4953043;28;20284;-75
2023/11/13 17:34:08;;;;;;;8.63;6.45;;;7.60;99.90;;;;;;4963068;28;20570;-76
2023/11/13 17:36:35;;;;;;;6.65;5.70;;;7.50;99.90;;;;;;4961581;28;20226;-75
2023/11/13 17:39:03;;;;;;;5.53;5.00;;;7.60;99.90;;;;;;4960994;28;20585;-75
2023/11/13 17:41:32;;;;;;;7.25;5.28;;;7.60;99.90;;;;;;4962819;28;20316;-76
2023/11/13 17:43:59;;;;;;;6.40;5.22;;;7.60;99.90;;;;;;4955544;28;20236;-74
2023/11/13 17:46:27;;;;;;;5.57;5.10;;;7.70;99.90;;;;;;4958211;28;20208;-79
2023/11/13 17:48:54;;;;;;;5.45;4.72;;;7.70;99.90;;;;;;4958820;28;20627;-72
2023/11/13 17:51:23;;;;;;;5.72;5.30;;;7.80;99.90;;;;;;4955814;28;20216;-74
2023/11/13 17:53:51;;;;;;;4.00;3.70;;;7.80;99.90;;;;;;4953502;28;20689;-74
2023/11/13 17:56:18;;;;;;;4.45;4.15;;;7.80;99.90;;;;;;4958452;28;20625;-73
2023/11/13 17:58:45;;;;;;;5.03;4.63;;;7.90;99.90;;;;;;4956738;28;20587;-74
2023/11/13 18:01:12;;;;;;;3.55;3.45;;;7.90;99.90;;;;;;4964452;28;20267;-75
2023/11/13 18:03:42;;;;;;;5.38;4.93;;;7.90;99.90;;;;;;4955424;28;20268;-73